createdAt,value
2023-01-25T00:01:37.236Z,67.93
2023-01-25T00:03:39.096Z,67.30
2023-01-25T00:05:42.085Z,67.36
2023-01-25T00:07:43.667Z,67.54
2023-01-25T00:09:45.319Z,67.69
2023-01-25T00:11:47.376Z,67.80
2023-01-25T00:13:48.984Z,68.03
2023-01-25T00:15:50.719Z,67.56
2023-01-25T00:17:52.337Z,67.44
2023-01-25T00:19:53.883Z,67.23
2023-01-25T00:21:56.837Z,67.22
2023-01-25T00:23:58.579Z,67.62
2023-01-25T00:26:00.212Z,67.02
2023-01-25T00:28:03.179Z,67.49
2023-01-25T00:30:06.187Z,67.51
2023-01-25T00:32:32.446Z,67.33
2023-01-25T00:34:46.232Z,67.66
2023-01-25T00:36:50.643Z,67.19
2023-01-25T00:38:55.203Z,67.03
2023-01-25T00:40:57.971Z,67.42
2023-01-25T00:42:59.834Z,67.41
2023-01-25T00:45:01.491Z,67.89
2023-01-25T00:47:03.130Z,67.45
2023-01-25T00:49:04.782Z,68.00
2023-01-25T00:51:06.569Z,67.66
2023-01-25T00:53:08.202Z,67.41
2023-01-25T00:55:11.883Z,67.57
2023-01-25T00:57:13.543Z,67.73
2023-01-25T00:59:15.466Z,67.00
2023-01-25T01:01:17.459Z,66.78
2023-01-25T01:03:19.508Z,67.18
2023-01-25T01:05:21.337Z,66.97
2023-01-25T01:07:22.935Z,67.35
2023-01-25T01:09:24.633Z,67.01
2023-01-25T01:11:27.674Z,67.31
2023-01-25T01:13:30.015Z,66.82
2023-01-25T01:15:31.678Z,66.84
2023-01-25T01:17:33.238Z,67.24
2023-01-25T01:19:35.071Z,66.85
2023-01-25T01:21:36.870Z,67.36
2023-01-25T01:23:39.279Z,67.36
2023-01-25T01:25:40.859Z,67.27
2023-01-25T01:27:44.521Z,67.41
2023-01-25T01:29:46.278Z,67.13
2023-01-25T01:31:50.001Z,67.26
2023-01-25T01:33:54.412Z,67.29
2023-01-25T01:35:56.967Z,66.89
2023-01-25T01:37:59.029Z,67.14
2023-01-25T01:40:00.795Z,66.85
2023-01-25T01:42:02.546Z,67.62
2023-01-25T01:44:06.024Z,67.55
2023-01-25T01:46:13.829Z,67.27
2023-01-25T01:48:18.057Z,67.41
2023-01-25T01:50:24.617Z,67.26
2023-01-25T01:52:30.414Z,67.17
2023-01-25T01:54:36.358Z,67.45
2023-01-25T01:56:44.656Z,67.26
2023-01-25T01:58:48.726Z,66.99
2023-01-25T02:00:51.914Z,67.27
2023-01-25T02:02:55.170Z,66.99
2023-01-25T02:05:00.587Z,67.08
2023-01-25T02:07:08.331Z,66.92
2023-01-25T02:09:10.333Z,66.67
2023-01-25T02:11:12.913Z,66.83
2023-01-25T02:13:15.239Z,66.71
2023-01-25T02:15:18.858Z,67.10
2023-01-25T02:17:26.388Z,67.07
2023-01-25T02:19:38.828Z,67.31
2023-01-25T02:21:45.957Z,67.26
2023-01-25T02:23:54.248Z,67.48
2023-01-25T02:26:00.740Z,67.57
2023-01-25T02:28:09.380Z,66.84
2023-01-25T02:30:11.572Z,66.77
2023-01-25T02:32:13.735Z,67.07
2023-01-25T02:34:15.397Z,67.14
2023-01-25T02:36:23.925Z,67.67
2023-01-25T02:38:25.746Z,67.39
2023-01-25T02:40:31.572Z,67.51
2023-01-25T02:42:34.870Z,67.41
2023-01-25T02:44:38.492Z,66.98
2023-01-25T02:46:42.358Z,67.51
2023-01-25T02:48:44.319Z,67.30
2023-01-25T02:53:02.715Z,67.43
2023-01-25T02:55:04.955Z,66.82
2023-01-25T02:57:06.917Z,67.54
2023-01-25T02:59:11.207Z,67.28
2023-01-25T03:01:14.035Z,67.32
2023-01-25T03:03:15.950Z,67.61
2023-01-25T03:05:17.523Z,67.45
2023-01-25T03:07:19.330Z,67.54
2023-01-25T03:09:21.073Z,67.83
2023-01-25T03:11:22.680Z,68.16
2023-01-25T03:13:24.208Z,67.29
2023-01-25T03:15:27.763Z,67.53
2023-01-25T03:17:30.038Z,67.29
2023-01-25T03:19:31.985Z,66.50
2023-01-25T03:21:33.687Z,67.46
2023-01-25T03:23:37.320Z,67.34
2023-01-25T03:25:39.039Z,67.47
2023-01-25T03:27:40.864Z,66.72
2023-01-25T03:29:42.496Z,66.86
2023-01-25T03:31:45.699Z,66.67
2023-01-25T03:33:47.645Z,66.88
2023-01-25T03:35:52.127Z,67.45
2023-01-25T03:37:54.327Z,66.97
2023-01-25T03:39:58.223Z,67.45
2023-01-25T03:41:59.966Z,67.74
2023-01-25T03:44:01.756Z,67.21
2023-01-25T03:46:03.751Z,67.09
2023-01-25T03:48:07.227Z,67.41
2023-01-25T03:50:10.137Z,67.66
2023-01-25T03:52:11.833Z,67.61
2023-01-25T03:54:13.579Z,68.26
2023-01-25T03:56:15.332Z,68.13
2023-01-25T03:58:16.926Z,67.55
2023-01-25T04:00:21.319Z,68.10
2023-01-25T04:02:23.237Z,68.22
2023-01-25T04:04:26.385Z,68.18
2023-01-25T04:06:28.032Z,68.33
2023-01-25T04:08:30.535Z,68.51
2023-01-25T04:10:32.148Z,68.33
2023-01-25T04:12:33.910Z,68.45
2023-01-25T04:14:44.239Z,68.01
2023-01-25T04:16:46.101Z,68.70
2023-01-25T04:18:47.711Z,68.11
2023-01-25T04:20:54.727Z,68.51
2023-01-25T04:22:56.301Z,68.08
2023-01-25T04:24:57.947Z,68.54
2023-01-25T04:26:59.675Z,68.64
2023-01-25T04:29:01.261Z,68.36
2023-01-25T04:31:03.076Z,68.44
2023-01-25T04:33:05.593Z,68.72
2023-01-25T04:35:09.575Z,68.60
2023-01-25T04:37:12.989Z,68.46
2023-01-25T04:39:14.887Z,68.29
2023-01-25T04:41:16.461Z,68.85
2023-01-25T04:43:19.616Z,68.83
2023-01-25T04:45:21.276Z,68.79
2023-01-25T04:47:23.295Z,68.95
2023-01-25T04:49:25.171Z,68.89
2023-01-25T04:51:26.723Z,69.34
2023-01-25T04:53:30.029Z,69.33
2023-01-25T04:55:33.566Z,69.01
2023-01-25T04:57:35.592Z,68.94
2023-01-25T04:59:37.247Z,69.01
2023-01-25T05:01:39.110Z,68.67
2023-01-25T05:03:43.202Z,68.71
2023-01-25T05:05:47.271Z,68.89
2023-01-25T05:07:49.004Z,68.42
2023-01-25T05:09:52.292Z,68.80
2023-01-25T05:11:54.054Z,68.87
2023-01-25T05:13:57.101Z,68.68
2023-01-25T05:16:00.134Z,68.71
2023-01-25T05:18:02.347Z,69.08
2023-01-25T05:20:04.527Z,68.96
2023-01-25T05:22:06.165Z,69.25
2023-01-25T05:24:08.208Z,69.05
2023-01-25T05:26:11.389Z,68.92
2023-01-25T05:28:13.110Z,69.24
2023-01-25T05:30:20.294Z,68.98
2023-01-25T05:32:23.829Z,68.96
2023-01-25T05:34:25.554Z,69.21
2023-01-25T05:36:27.498Z,69.02
2023-01-25T05:38:31.937Z,69.37
2023-01-25T05:40:33.591Z,69.36
2023-01-25T05:42:39.619Z,69.60
2023-01-25T05:44:41.505Z,68.85
2023-01-25T05:46:43.494Z,69.45
2023-01-25T05:48:47.499Z,69.16
2023-01-25T05:50:49.246Z,68.66
2023-01-25T05:52:51.046Z,69.34
2023-01-25T05:54:52.658Z,69.16
2023-01-25T05:56:54.237Z,69.21
2023-01-25T05:59:00.113Z,69.27
2023-01-25T06:01:02.718Z,69.40
2023-01-25T06:03:04.935Z,69.32
2023-01-25T06:05:08.151Z,69.32
2023-01-25T06:07:09.997Z,68.89
2023-01-25T06:09:13.664Z,68.73
2023-01-25T06:11:17.212Z,68.96
2023-01-25T06:13:21.060Z,69.62
2023-01-25T06:15:26.916Z,69.10
2023-01-25T06:17:28.489Z,69.25
2023-01-25T06:19:30.111Z,69.11
2023-01-25T06:21:32.492Z,69.33
2023-01-25T06:23:34.162Z,69.33
2023-01-25T06:25:35.700Z,69.13
2023-01-25T06:27:37.343Z,69.42
2023-01-25T06:29:38.974Z,69.07
2023-01-25T06:31:42.219Z,69.07
2023-01-25T06:33:47.731Z,69.18
2023-01-25T06:35:49.434Z,69.46
2023-01-25T06:37:51.293Z,69.09
2023-01-25T06:39:52.818Z,69.49
2023-01-25T06:41:54.833Z,69.63
2023-01-25T06:43:58.007Z,69.13
2023-01-25T06:46:00.775Z,69.62
2023-01-25T06:48:04.640Z,69.90
2023-01-25T06:50:08.408Z,69.34
2023-01-25T06:52:10.083Z,69.90
2023-01-25T06:54:11.735Z,69.67
2023-01-25T06:56:15.453Z,69.16
2023-01-25T06:58:18.741Z,69.43
2023-01-25T07:00:21.259Z,69.04
2023-01-25T07:02:23.103Z,69.62
2023-01-25T07:04:26.105Z,69.85
2023-01-25T07:06:33.020Z,69.95
2023-01-25T07:08:37.408Z,69.73
2023-01-25T07:10:39.261Z,69.16
2023-01-25T07:12:40.996Z,69.42
2023-01-25T07:14:42.830Z,69.82
2023-01-25T07:16:45.528Z,69.53
2023-01-25T07:18:47.702Z,69.67
2023-01-25T07:20:50.987Z,69.82
2023-01-25T07:22:52.684Z,69.59
2023-01-25T07:24:54.217Z,69.42
2023-01-25T07:26:56.243Z,69.57
2023-01-25T07:28:59.244Z,69.99
2023-01-25T07:31:04.663Z,70.02
2023-01-25T07:36:11.567Z,69.32
2023-01-25T07:38:14.720Z,70.02
2023-01-25T07:40:16.624Z,69.84
2023-01-25T07:42:18.229Z,69.34
2023-01-25T07:44:19.766Z,69.89
2023-01-25T07:46:22.133Z,69.36
2023-01-25T07:48:23.613Z,69.87
2023-01-25T07:50:26.617Z,69.87
2023-01-25T07:52:29.786Z,69.83
2023-01-25T07:54:31.542Z,69.87
2023-01-25T07:56:35.759Z,70.13
2023-01-25T07:58:37.403Z,69.50
2023-01-25T08:00:38.955Z,69.49
2023-01-25T08:02:40.788Z,69.80
2023-01-25T08:04:42.460Z,69.66
2023-01-25T08:06:44.184Z,70.10
2023-01-25T08:08:49.429Z,70.12
2023-01-25T08:10:51.095Z,70.19
2023-01-25T08:12:52.827Z,69.60
2023-01-25T08:14:54.605Z,69.92
2023-01-25T08:16:56.804Z,69.78
2023-01-25T08:19:00.481Z,70.18
2023-01-25T08:21:04.235Z,69.54
2023-01-25T08:23:08.088Z,69.97
2023-01-25T08:25:11.515Z,69.61
2023-01-25T08:27:13.157Z,70.06
2023-01-25T08:29:14.714Z,70.25
2023-01-25T08:31:18.497Z,69.79
2023-01-25T08:33:20.160Z,70.05
2023-01-25T08:35:21.810Z,70.11
2023-01-25T08:37:23.452Z,70.02
2023-01-25T08:39:25.380Z,70.26
2023-01-25T08:41:30.236Z,70.82
2023-01-25T08:43:32.102Z,70.45
2023-01-25T08:45:33.826Z,70.41
2023-01-25T08:47:35.664Z,70.28
2023-01-25T08:49:39.730Z,70.48
2023-01-25T08:51:41.450Z,70.40
2023-01-25T08:53:43.326Z,70.52
2023-01-25T08:55:45.632Z,70.49
2023-01-25T08:57:48.769Z,70.01
2023-01-25T08:59:50.413Z,70.13
2023-01-25T09:01:51.945Z,70.12
2023-01-25T09:03:54.669Z,70.12
2023-01-25T09:05:56.769Z,69.61
2023-01-25T09:07:59.149Z,69.80
2023-01-25T09:10:00.813Z,70.34
2023-01-25T09:12:02.457Z,70.40
2023-01-25T09:14:05.994Z,70.19
2023-01-25T09:16:09.265Z,70.05
2023-01-25T09:18:11.205Z,69.94
2023-01-25T09:20:13.588Z,70.26
2023-01-25T09:22:15.359Z,70.39
2023-01-25T09:24:17.056Z,70.04
2023-01-25T09:26:19.372Z,70.06
2023-01-25T09:28:20.995Z,70.42
2023-01-25T09:30:33.902Z,70.00
2023-01-25T09:32:42.718Z,70.13
2023-01-25T09:34:44.543Z,70.11
2023-01-25T09:36:46.251Z,70.05
2023-01-25T09:38:47.874Z,70.06
2023-01-25T09:41:03.671Z,70.21
2023-01-25T09:43:15.231Z,70.25
2023-01-25T09:45:30.989Z,70.32
2023-01-25T09:47:40.471Z,69.91
2023-01-25T09:50:01.180Z,70.29
2023-01-25T09:52:29.424Z,70.51
2023-01-25T09:54:46.588Z,70.07
2023-01-25T09:56:51.898Z,70.16
2023-01-25T09:58:58.803Z,70.40
2023-01-25T10:01:14.394Z,70.68
2023-01-25T10:03:24.005Z,70.50
2023-01-25T10:05:30.197Z,70.83
2023-01-25T10:07:47.264Z,70.73
2023-01-25T10:09:58.638Z,70.32
2023-01-25T10:12:13.586Z,69.93
2023-01-25T10:14:17.033Z,69.96
2023-01-25T10:16:26.661Z,70.43
2023-01-25T10:18:35.068Z,70.17
2023-01-25T10:20:43.429Z,69.72
2023-01-25T10:22:51.363Z,70.15
2023-01-25T10:25:24.293Z,70.20
2023-01-25T10:27:35.764Z,69.58
2023-01-25T10:29:39.109Z,69.14
2023-01-25T10:31:46.419Z,69.27
2023-01-25T10:33:49.689Z,69.58
2023-01-25T10:35:51.416Z,69.34
2023-01-25T10:37:53.882Z,69.65
2023-01-25T10:40:02.116Z,69.54
2023-01-25T10:42:09.700Z,69.48
2023-01-25T10:44:13.198Z,69.63
2023-01-25T10:46:20.100Z,69.28
2023-01-25T10:48:29.155Z,68.87
2023-01-25T10:50:58.334Z,69.31
2023-01-25T10:53:00.212Z,68.85
2023-01-25T10:55:18.557Z,69.57
2023-01-25T10:57:22.650Z,69.24
2023-01-25T10:59:26.864Z,69.33
2023-01-25T11:01:30.994Z,68.82
2023-01-25T11:03:40.324Z,69.17
2023-01-25T11:05:42.028Z,68.81
2023-01-25T11:07:44.346Z,68.53
2023-01-25T11:09:46.076Z,68.99
2023-01-25T11:11:54.516Z,69.14
2023-01-25T11:13:56.152Z,68.73
2023-01-25T11:16:26.684Z,68.67
2023-01-25T11:18:30.315Z,68.29
2023-01-25T11:20:33.467Z,68.64
2023-01-25T11:22:35.328Z,68.51
2023-01-25T11:24:36.921Z,68.83
2023-01-25T11:26:40.587Z,68.47
2023-01-25T11:28:42.945Z,68.69
2023-01-25T11:30:45.747Z,68.31
2023-01-25T11:32:47.443Z,68.90
2023-01-25T11:34:50.047Z,68.96
2023-01-25T11:37:17.401Z,69.27
2023-01-25T11:39:36.896Z,69.33
2023-01-25T11:41:53.010Z,68.84
2023-01-25T11:44:22.744Z,68.67
2023-01-25T11:46:45.343Z,69.11
2023-01-25T11:49:16.184Z,69.47
2023-01-25T11:51:25.606Z,68.96
2023-01-25T11:53:45.306Z,68.58
2023-01-25T11:55:56.136Z,69.37
2023-01-25T11:58:10.916Z,69.20
2023-01-25T12:00:28.461Z,68.99
2023-01-25T12:02:49.690Z,68.76
2023-01-25T12:05:16.335Z,68.96
2023-01-25T12:07:34.923Z,68.30
2023-01-25T12:09:56.441Z,68.81
2023-01-25T12:12:11.818Z,68.14
2023-01-25T12:14:24.424Z,68.29
2023-01-25T12:16:53.379Z,68.19
2023-01-25T12:19:11.317Z,68.35
2023-01-25T12:21:31.343Z,68.51
2023-01-25T12:23:45.509Z,68.73
2023-01-25T12:26:02.843Z,68.47
2023-01-25T12:28:13.972Z,68.73
2023-01-25T12:30:24.498Z,69.13
2023-01-25T12:32:33.282Z,69.16
2023-01-25T12:34:39.131Z,68.51
2023-01-25T12:36:45.067Z,68.85
2023-01-25T12:38:55.923Z,69.29
2023-01-25T12:41:02.835Z,68.96
2023-01-25T12:43:09.577Z,68.59
2023-01-25T12:45:17.226Z,68.47
2023-01-25T12:47:25.041Z,68.94
2023-01-25T12:49:34.155Z,68.94
2023-01-25T12:51:42.045Z,69.29
2023-01-25T12:53:46.101Z,69.22
2023-01-25T12:55:48.424Z,68.58
2023-01-25T12:58:00.135Z,68.68
2023-01-25T13:00:09.702Z,68.69
2023-01-25T13:02:28.200Z,68.81
2023-01-25T13:04:55.142Z,69.12
2023-01-25T13:07:04.281Z,68.50
2023-01-25T13:09:14.938Z,68.68
2023-01-25T13:11:23.832Z,68.80
2023-01-25T13:13:28.950Z,68.89
2023-01-25T13:15:39.380Z,69.37
2023-01-25T13:17:41.332Z,68.66
2023-01-25T13:19:43.507Z,68.68
2023-01-25T13:21:46.921Z,68.22
2023-01-25T13:24:11.359Z,68.53
2023-01-25T13:26:39.395Z,68.61
2023-01-25T13:28:44.684Z,68.27
2023-01-25T13:30:52.727Z,68.75
2023-01-25T13:32:58.409Z,68.63
2023-01-25T13:35:01.372Z,68.75
2023-01-25T13:37:16.022Z,68.47
2023-01-25T13:39:41.083Z,69.05
2023-01-25T13:41:58.560Z,68.60
2023-01-25T13:44:25.303Z,68.63
2023-01-25T13:46:26.929Z,68.08
2023-01-25T13:48:31.550Z,68.02
2023-01-25T13:50:35.889Z,68.55
2023-01-25T13:52:37.508Z,68.92
2023-01-25T13:54:43.466Z,68.70
2023-01-25T13:56:46.082Z,68.74
2023-01-25T13:58:47.912Z,69.02
2023-01-25T14:00:56.193Z,68.82
2023-01-25T14:02:58.052Z,68.58
2023-01-25T14:05:00.720Z,68.38
2023-01-25T14:07:02.795Z,68.12
2023-01-25T14:09:11.633Z,68.52
2023-01-25T14:11:18.867Z,68.52
2023-01-25T14:13:20.462Z,69.15
2023-01-25T14:15:24.449Z,68.90
2023-01-25T14:17:27.558Z,68.78
2023-01-25T14:19:31.278Z,68.42
2023-01-25T14:21:32.970Z,69.05
2023-01-25T14:23:34.729Z,68.61
2023-01-25T14:25:40.530Z,68.91
2023-01-25T14:27:46.400Z,69.14
2023-01-25T14:29:48.953Z,68.53
2023-01-25T14:31:51.558Z,69.04
2023-01-25T14:33:55.487Z,68.44
2023-01-25T14:36:16.090Z,68.99
2023-01-25T14:38:29.303Z,68.29
2023-01-25T14:40:32.107Z,68.67
2023-01-25T14:42:33.940Z,68.75
2023-01-25T14:44:35.785Z,69.43
2023-01-25T14:46:39.098Z,69.54
2023-01-25T14:48:42.463Z,69.50
2023-01-25T14:50:46.359Z,69.06
2023-01-25T14:52:48.037Z,69.05
2023-01-25T14:54:54.155Z,69.15
2023-01-25T14:56:58.128Z,69.57
2023-01-25T14:59:00.757Z,69.93
2023-01-25T15:01:03.488Z,69.94
2023-01-25T15:03:06.648Z,69.51
2023-01-25T15:05:20.118Z,69.71
2023-01-25T15:07:44.346Z,69.28
2023-01-25T15:10:01.867Z,69.19
2023-01-25T15:12:05.635Z,69.44
2023-01-25T15:14:17.675Z,69.32
2023-01-25T15:16:32.186Z,69.95
2023-01-25T15:18:41.788Z,69.38
2023-01-25T15:20:43.600Z,70.07
2023-01-25T15:22:46.736Z,69.68
2023-01-25T15:24:57.453Z,70.08
2023-01-25T15:27:00.056Z,70.08
2023-01-25T15:29:05.715Z,70.19
2023-01-25T15:31:09.568Z,70.07
2023-01-25T15:33:19.453Z,69.64
2023-01-25T15:35:21.378Z,70.04
2023-01-25T15:37:23.090Z,70.26
2023-01-25T15:39:27.202Z,70.39
2023-01-25T15:41:28.789Z,70.08
2023-01-25T15:43:30.444Z,69.95
2023-01-25T15:45:33.996Z,70.05
2023-01-25T15:47:36.694Z,70.22
2023-01-25T15:49:38.304Z,70.51
2023-01-25T15:51:39.933Z,70.11
2023-01-25T15:53:41.793Z,70.09
2023-01-25T15:55:49.047Z,70.37
2023-01-25T15:57:50.908Z,70.45
2023-01-25T15:59:52.662Z,69.94
2023-01-25T16:01:54.214Z,70.15
2023-01-25T16:03:56.382Z,70.52
2023-01-25T16:06:01.205Z,70.41
2023-01-25T16:08:02.958Z,70.44
2023-01-25T16:10:05.146Z,69.96
2023-01-25T16:12:08.946Z,70.16
2023-01-25T16:14:10.996Z,70.42
2023-01-25T16:16:18.094Z,70.50
2023-01-25T16:18:20.079Z,70.54
2023-01-25T16:20:21.728Z,70.34
2023-01-25T16:22:23.538Z,70.35
2023-01-25T16:24:25.125Z,70.38
2023-01-25T16:26:28.158Z,70.85
2023-01-25T16:28:31.446Z,70.95
2023-01-25T16:30:33.108Z,70.71
2023-01-25T16:32:34.965Z,70.70
2023-01-25T16:34:36.828Z,70.28
2023-01-25T16:36:39.645Z,70.10
2023-01-25T16:38:42.083Z,70.34
2023-01-25T16:40:43.863Z,70.40
2023-01-25T16:42:45.666Z,70.46
2023-01-25T16:44:48.876Z,70.51
2023-01-25T16:46:50.645Z,70.25
2023-01-25T16:48:52.849Z,70.59
2023-01-25T16:50:55.563Z,70.21
2023-01-25T16:52:57.794Z,70.91
2023-01-25T16:54:59.472Z,70.61
2023-01-25T16:57:08.675Z,70.74
2023-01-25T16:59:22.446Z,70.75
2023-01-25T17:01:25.888Z,70.83
2023-01-25T17:03:28.252Z,70.56
2023-01-25T17:05:29.947Z,70.45
2023-01-25T17:07:32.513Z,70.54
2023-01-25T17:09:34.089Z,70.79
2023-01-25T17:11:36.999Z,70.71
2023-01-25T17:13:38.985Z,70.75
2023-01-25T17:15:40.779Z,70.97
2023-01-25T17:17:44.019Z,70.82
2023-01-25T17:19:45.914Z,71.13
2023-01-25T17:21:48.082Z,71.14
2023-01-25T17:23:50.010Z,71.29
2023-01-25T17:25:51.848Z,71.34
2023-01-25T17:27:53.842Z,70.63
2023-01-25T17:29:55.585Z,70.92
2023-01-25T17:31:57.699Z,71.35
2023-01-25T17:34:05.270Z,70.81
2023-01-25T17:36:08.452Z,71.43
2023-01-25T17:38:10.216Z,71.16
2023-01-25T17:40:13.036Z,71.15
2023-01-25T17:42:14.787Z,70.89
2023-01-25T17:44:18.720Z,71.05
2023-01-25T17:46:23.056Z,70.83
2023-01-25T17:48:25.345Z,71.29
2023-01-25T17:50:28.311Z,70.94
2023-01-25T17:52:30.143Z,71.24
2023-01-25T17:54:31.728Z,71.18
2023-01-25T17:56:33.992Z,71.18
2023-01-25T17:58:38.706Z,71.06
2023-01-25T18:00:40.470Z,71.16
2023-01-25T18:02:44.187Z,71.08
2023-01-25T18:04:45.993Z,71.53
2023-01-25T18:06:49.086Z,70.83
2023-01-25T18:08:52.300Z,71.23
2023-01-25T18:10:58.521Z,71.21
2023-01-25T18:13:04.773Z,70.82
2023-01-25T18:15:08.057Z,71.12
2023-01-25T18:17:10.134Z,70.72
2023-01-25T18:19:12.006Z,70.81
2023-01-25T18:21:16.744Z,71.02
2023-01-25T18:23:19.993Z,71.17
2023-01-25T18:25:33.871Z,71.23
2023-01-25T18:27:37.756Z,70.87
2023-01-25T18:29:52.756Z,71.42
2023-01-25T18:31:54.512Z,70.88
2023-01-25T18:33:56.228Z,71.42
2023-01-25T18:35:57.803Z,71.15
2023-01-25T18:37:59.632Z,71.40
2023-01-25T18:40:04.962Z,70.85
2023-01-25T18:42:06.932Z,71.42
2023-01-25T18:44:09.023Z,71.56
2023-01-25T18:46:11.303Z,71.41
2023-01-25T18:48:13.743Z,71.58
2023-01-25T18:50:15.565Z,71.27
2023-01-25T18:52:18.089Z,70.75
2023-01-25T18:54:19.765Z,71.66
2023-01-25T18:56:23.259Z,71.23
2023-01-25T18:58:24.769Z,71.25
2023-01-25T19:00:26.492Z,71.42
2023-01-25T19:02:28.297Z,71.48
2023-01-25T19:04:30.091Z,71.37
2023-01-25T19:06:31.841Z,71.31
2023-01-25T19:08:33.719Z,71.44
2023-01-25T19:10:37.197Z,71.75
2023-01-25T19:12:40.434Z,71.88
2023-01-25T19:14:42.454Z,71.46
2023-01-25T19:16:44.034Z,71.46
2023-01-25T19:18:47.813Z,71.52
2023-01-25T19:20:49.990Z,71.12
2023-01-25T19:22:53.894Z,71.92
2023-01-25T19:24:55.490Z,71.95
2023-01-25T19:26:57.174Z,71.71
2023-01-25T19:29:00.357Z,71.26
2023-01-25T19:31:06.702Z,71.60
2023-01-25T19:33:08.359Z,71.02
2023-01-25T19:35:10.284Z,71.54
2023-01-25T19:37:12.286Z,71.37
2023-01-25T19:39:13.860Z,71.72
2023-01-25T19:41:17.455Z,72.05
2023-01-25T19:43:20.481Z,71.84
2023-01-25T19:45:23.725Z,72.05
2023-01-25T19:47:25.265Z,72.03
2023-01-25T19:49:26.875Z,71.94
2023-01-25T19:51:29.953Z,71.76
2023-01-25T19:53:33.087Z,72.44
2023-01-25T19:55:34.908Z,72.62
2023-01-25T19:57:36.472Z,72.07
2023-01-25T19:59:38.511Z,71.75
2023-01-25T20:01:41.843Z,71.59
2023-01-25T20:03:43.988Z,72.19
2023-01-25T20:05:45.691Z,72.28
2023-01-25T20:07:47.293Z,71.97
2023-01-25T20:09:48.869Z,71.46
2023-01-25T20:11:50.824Z,72.45
2023-01-25T20:13:56.858Z,72.53
2023-01-25T20:15:58.626Z,72.35
2023-01-25T20:18:01.922Z,71.99
2023-01-25T20:20:04.303Z,72.48
2023-01-25T20:22:05.988Z,72.65
2023-01-25T20:24:08.914Z,71.80
2023-01-25T20:26:13.471Z,72.14
2023-01-25T20:28:15.281Z,72.61
2023-01-25T20:30:17.613Z,72.62
2023-01-25T20:32:32.050Z,72.59
2023-01-25T20:34:35.704Z,72.04
2023-01-25T20:36:37.597Z,72.08
2023-01-25T20:38:41.035Z,72.40
2023-01-25T20:40:42.720Z,72.48
2023-01-25T20:42:47.034Z,72.45
2023-01-25T20:44:48.583Z,72.23
2023-01-25T20:46:51.755Z,71.94
2023-01-25T20:48:54.129Z,72.20
2023-01-25T20:51:02.819Z,72.48
2023-01-25T20:53:04.504Z,71.88
2023-01-25T20:55:06.911Z,72.45
2023-01-25T20:57:09.025Z,71.93
2023-01-25T20:59:10.956Z,71.90
2023-01-25T21:01:14.354Z,71.34
2023-01-25T21:03:15.998Z,72.14
2023-01-25T21:05:17.998Z,71.70
2023-01-25T21:07:21.151Z,71.99
2023-01-25T21:09:22.801Z,72.05
2023-01-25T21:11:24.578Z,72.14
2023-01-25T21:13:28.868Z,72.18
2023-01-25T21:15:30.618Z,72.08
2023-01-25T21:17:34.225Z,72.13
2023-01-25T21:19:36.411Z,72.23
2023-01-25T21:21:38.037Z,72.05
2023-01-25T21:23:42.800Z,72.50
2023-01-25T21:25:44.449Z,72.52
2023-01-25T21:27:46.076Z,71.92
2023-01-25T21:29:48.063Z,72.05
2023-01-25T21:31:50.026Z,71.83
2023-01-25T21:33:52.691Z,72.38
2023-01-25T21:35:54.478Z,71.96
2023-01-25T21:37:56.122Z,71.96
2023-01-25T21:39:59.415Z,72.12
2023-01-25T21:42:01.297Z,71.80
2023-01-25T21:44:03.643Z,72.02
2023-01-25T21:46:06.509Z,72.34
2023-01-25T21:48:08.278Z,72.19
2023-01-25T21:50:11.119Z,72.44
2023-01-25T21:52:13.046Z,71.76
2023-01-25T21:54:15.322Z,72.51
2023-01-25T21:56:18.389Z,72.43
2023-01-25T21:58:20.245Z,72.00
2023-01-25T22:00:22.062Z,72.25
2023-01-25T22:02:23.767Z,72.26
2023-01-25T22:04:26.123Z,72.64
2023-01-25T22:06:27.876Z,72.50
2023-01-25T22:08:29.401Z,72.68
2023-01-25T22:10:30.976Z,71.87
2023-01-25T22:12:35.514Z,71.60
2023-01-25T22:14:37.434Z,71.80
2023-01-25T22:16:40.369Z,72.26
2023-01-25T22:18:43.105Z,72.40
2023-01-25T22:20:45.198Z,72.47
2023-01-25T22:22:46.821Z,71.92
2023-01-25T22:24:48.388Z,72.00
2023-01-25T22:26:58.002Z,71.84
2023-01-25T22:29:01.048Z,72.55
2023-01-25T22:31:02.972Z,72.31
2023-01-25T22:33:04.637Z,72.05
2023-01-25T22:35:07.415Z,72.12
2023-01-25T22:37:10.594Z,72.03
2023-01-25T22:39:13.857Z,72.04
2023-01-25T22:41:17.467Z,72.47
2023-01-25T22:43:19.415Z,71.70
2023-01-25T22:45:22.537Z,72.06
2023-01-25T22:47:24.611Z,72.26
2023-01-25T22:49:26.315Z,72.09
2023-01-25T22:51:29.768Z,72.80
2023-01-25T22:53:34.301Z,72.67
2023-01-25T22:55:36.385Z,72.22
2023-01-25T22:57:37.971Z,72.58
2023-01-25T22:59:39.485Z,72.55
2023-01-25T23:01:42.609Z,72.45
2023-01-25T23:03:44.421Z,72.52
2023-01-25T23:05:46.156Z,72.41
2023-01-25T23:07:47.962Z,72.40
2023-01-25T23:09:49.599Z,72.82
2023-01-25T23:11:51.265Z,72.42
2023-01-25T23:13:54.042Z,72.88
2023-01-25T23:15:56.093Z,72.69
2023-01-25T23:18:01.229Z,72.96
2023-01-25T23:20:02.878Z,72.67
2023-01-25T23:22:04.608Z,72.55
2023-01-25T23:24:07.145Z,73.33
2023-01-25T23:26:09.238Z,72.96
2023-01-25T23:28:12.223Z,73.40
2023-01-25T23:30:14.488Z,73.21
2023-01-25T23:32:16.092Z,73.43
2023-01-25T23:34:19.129Z,73.27
2023-01-25T23:36:23.147Z,73.21
2023-01-25T23:38:24.884Z,73.81
2023-01-25T23:40:26.494Z,73.47
2023-01-25T23:42:28.045Z,73.06
2023-01-25T23:44:29.773Z,73.54
2023-01-25T23:46:31.600Z,73.76
2023-01-25T23:48:33.560Z,73.96
2023-01-25T23:50:36.903Z,73.54
2023-01-25T23:52:40.455Z,73.95
2023-01-25T23:54:44.035Z,73.76
2023-01-25T23:56:45.964Z,73.47
2023-01-25T23:58:48.781Z,73.71
